Etusivu
METAR-TAF:

METAR-TAF

Lentoasemat :

Trapani, Italia

Leveyspiiri: 37-55N, Pituuspiiri: 012-30E, korkeus merenpinnasta: 7 m

Tämänhetkinen sää

Tämä raportti tehtiin 1 tunti ja 1 minuuttia sitten, kello 05.55 UTC
Tuuli 2 kn eri suunnista
Lämpötila 14°C
Kosteus 88%
Ilmanpaine 1017 hPa
Näkyvyys 10 km tai enemmän
Muutamia pilviä 1400 ft:n korkeudessa

METAR: LICT 240555Z VRB02KT 9999 FEW014 14/12 Q1017 RMK FEW VIS MIN 9999 WIND THR13 00000KT BLU

Aika: 08:56 (06:56 UTC)

Sääennuste

Tämä raportti tehtiin 1 tunti ja 56 minuuttia sitten, kello 05.00 UTC
Ennuste voimassa 24. päivästä klo 06 UTC - 24. päivään klo 15 UTC
Tuuli 3 kn eri suunnista
Näkyvyys 10 km tai enemmän
ei pilviä alle 1500 m:ssä eikä cumulonimbus-pilviä
Tulossa
24. päivästä klo 12 UTC - 24. päivään klo 14 UTC
Tuuli 8 kn etelästä/lounaasta

TAF: LICT 240500Z 2406/2415 VRB03KT CAVOK BECMG 2412/2414 20008KT

Säähavainnot ja -ennusteet yli 4000 lentoasemalta (METAR- ja TAF-raportit).

Käytössä olevat sääasemat on merkitty karttaan keltaisilla ja punaisilla pisteillä.

Aseta hiiri pisteen päälle nähdäksesi sääaseman nimen.

Klikkaa sitten nähdäksesi säähavainnot ja -ennusteet.

Kartan vaihtaminen: klikkaa mustalla rastilla varustettuja vihreitä pisteitä, niin voit zoomata sisään; viivalla varustettua vihreää pistettä, niin voit zoomata ulos tai vihreitä nuolia, niin pääset viereisille kartoille.


METAR-TAF: